METAR Data
IDs: Format: Raw Decoded Include TAF

Data at: 0859 UTC 26 Jan 2020

KBUU 260855Z AUTO 28008KT 10SM OVC011 01/M01 A2989 RMK AO2 T00051006
KBUU 260835Z AUTO 27008KT 10SM OVC011 01/M01 A2989 RMK AO2 T00051006
KBUU 260815Z AUTO 28008KT 10SM OVC009 01/00 A2988 RMK AO2 T00051005
KBUU 260755Z AUTO 27007KT 10SM OVC009 01/00 A2988 RMK AO2 T00051004
KBUU 260735Z AUTO 28008KT 10SM OVC009 01/00 A2988 RMK AO2 T00061002
KBUU 260715Z AUTO 27006KT 10SM OVC009 01/00 A2988 RMK AO2 T00061001
KBUU 260655Z AUTO 28007KT 10SM OVC011 01/00 A2987 RMK AO2 T00060000
KBUU 260635Z AUTO 28009KT 5SM BR BKN011 OVC018 01/00 A2987 RMK AO2 T00060000
KBUU 260615Z AUTO 28007KT 10SM OVC009 01/00 A2988 RMK AO2 T00070000
KBUU 260555Z AUTO 28007KT 10SM OVC009 01/00 A2988 RMK AO2 T00080000 10010 20006 400110000
KBUU 260535Z AUTO 28008KT 10SM OVC009 01/00 A2988 RMK AO2 T00070000
KBUU 260515Z AUTO 28007KT 10SM BKN009 OVC020 01/00 A2987 RMK AO2 T00080000
KBUU 260455Z AUTO 28007KT 10SM SCT009 BKN018 OVC046 01/00 A2987 RMK AO2 T00080000
KBUU 260435Z AUTO 29008KT 10SM SCT009 BKN016 OVC046 01/00 A2986 RMK AO2 T00090000
KBUU 260415Z AUTO 29008KT 10SM BKN009 OVC014 01/00 A2987 RMK AO2 T00080000
KBUU 260355Z AUTO 28008KT 10SM BKN009 OVC020 01/00 A2986 RMK AO2 T00080000
KBUU 260335Z AUTO 28008KT 10SM SCT009 BKN014 OVC043 01/00 A2986 RMK AO2 T00080000
KBUU 260315Z AUTO 00000KT 10SM BKN009 OVC014 01/00 A2986 RMK AO2 T00080000
KBUU 260255Z AUTO 29006KT 10SM BKN010 OVC014 01/00 A2986 RMK AO2 T00070000
KBUU 260235Z AUTO 29006KT 7SM OVC010 01/00 A2986 RMK AO2 T00070000
KBUU 260215Z AUTO 29008KT 10SM OVC010 01/00 A2986 RMK AO2 T00100000
KBUU 260155Z AUTO 28007KT 10SM OVC014 01/00 A2986 RMK AO2 T00100000
KBUU 260135Z AUTO 28008KT 10SM OVC014 01/00 A2986 RMK AO2 T00090000
KBUU 260115Z AUTO 28008KT 10SM SCT010 OVC014 01/00 A2985 RMK AO2 T00080000
KBUU 260055Z AUTO 28007KT 10SM OVC016 01/00 A2985 RMK AO2 T00081001
KBUU 260035Z AUTO 29006KT 10SM OVC016 01/00 A2984 RMK AO2 T00081001
KBUU 260015Z AUTO 29007KT 10SM OVC016 01/00 A2984 RMK AO2 T00081001
KBUU 252355Z AUTO 00000KT 10SM OVC016 01/00 A2983 RMK AO2 T00081001 10011 20008
KBUU 252335Z AUTO 29006KT 10SM OVC018 01/00 A2983 RMK AO2 T00101003
KBUU 252315Z AUTO 29007KT 10SM BKN016 OVC024 01/00 A2982 RMK AO2 T00091002
KBUU 252255Z AUTO 29007KT 10SM SCT021 BKN025 OVC031 01/00 A2982 RMK AO2 T00081001
KBUU 252235Z AUTO 30008KT 10SM SCT010 BKN013 OVC025 01/00 A2982 RMK AO2 T00080000
KBUU 252215Z AUTO 30009KT 10SM OVC013 01/00 A2981 RMK AO2 T00100000
KBUU 252155Z AUTO 28008KT 10SM BKN014 OVC019 01/00 A2981 RMK AO2 T00110000
KBUU 252135Z AUTO 28007KT 10SM BKN014 OVC019 01/00 A2980 RMK AO2 T00110000
KBUU 252115Z AUTO 28006KT 10SM BKN014 OVC025 01/00 A2980 RMK AO2 T00110000
KBUU 252055Z AUTO 28008KT 10SM BKN012 BKN024 OVC028 01/00 A2980 RMK AO2 T00100000
KBUU 252035Z AUTO 28006KT 2 1/2SM -RA SCT008 BKN014 OVC039 01/00 A2980 RMK AO2 T00080000
KBUU 252015Z AUTO 28006KT 4SM BR SCT008 BKN013 OVC042 01/00 A2979 RMK AO2 T00100001
KBUU 251955Z AUTO 28007KT 5SM BR BKN011 OVC017 01/00 A2979 RMK AO2 T00110002
KBUU 251935Z AUTO 00000KT 7SM -SN SCT008 OVC015 01/00 A2979 RMK AO2 T00100001
KBUU 251915Z AUTO 28006KT 3SM -SN SCT008 BKN013 OVC019 01/00 A2979 RMK AO2 T00100001
KBUU 251855Z AUTO 28006KT 4SM -SN SCT008 OVC015 01/00 A2979 RMK AO2 T00100000
KBUU 251835Z AUTO 28007KT 4SM -SN SCT006 BKN009 OVC015 01/00 A2979 RMK AO2 T00100000
KBUU 251815Z AUTO 28007KT 3SM -SN SCT005 OVC012 01/00 A2979 RMK AO2 T00100001
KBUU 251755Z AUTO 28005KT 2SM -SN BKN010 OVC014 01/00 A2979 RMK AO2 60001 T00080000 10010 20001
KBUU 251735Z AUTO 29005KT 4SM -SN BKN008 OVC013 01/00 A2980 RMK AO2 T00100000
KBUU 251715Z AUTO 00000KT 7SM -SN BKN010 BKN026 01/00 A2980 RMK AO2 T00100000
KBUU 251655Z AUTO 00000KT 5SM -SN BKN008 BKN014 01/00 A2980 RMK AO2 T00080000
KBUU 251635Z AUTO 00000KT 3SM -SN OVC012 01/00 A2980 RMK AO2 T00070000
KBUU 251615Z AUTO 00000KT 7SM -SN BKN008 OVC012 01/00 A2980 RMK AO2 T00070000
KBUU 251555Z AUTO 00000KT 3SM -SN BKN008 OVC015 01/00 A2980 RMK AO2 P0001 T00050000
KBUU 251535Z AUTO 00000KT 2 1/2SM -SN BKN006 OVC012 01/00 A2979 RMK AO2 P0001 T00050000
KBUU 251515Z AUTO 00000KT 1 1/4SM -SN OVC008 00/00 A2979 RMK AO2 P0001 T00030000
KBUU 251455Z AUTO 00000KT 2SM -SN OVC008 00/00 A2979 RMK AO2 T00030000
KBUU 251435Z AUTO 00000KT 1 1/2SM -SN OVC008 00/00 A2978 RMK AO2 T00020000
KBUU 251415Z AUTO 00000KT 1 1/2SM -SN OVC008 00/00 A2978 RMK AO2 T00020000
KBUU 251355Z AUTO 00000KT 1 3/4SM -SN OVC008 00/00 A2978 RMK AO2 T00020000
KBUU 251335Z AUTO 29005KT 2SM -SN OVC008 00/00 A2978 RMK AO2 T00020000
KBUU 251315Z AUTO 29006KT 3SM -SN OVC008 00/00 A2977 RMK AO2 T00020000
KBUU 251255Z AUTO 29005KT 3SM -SN 00/00 A2977 RMK AO2 SKY OBSCURED T00020000
KBUU 251235Z AUTO 00000KT 1 3/4SM -SN BKN007 BKN011 BKN024 00/00 A2976 RMK AO2 T00020000
KBUU 251215Z AUTO 29006KT 2 1/2SM -SN OVC007 00/00 A2976 RMK AO2 T00020000
KBUU 251155Z AUTO 29006KT 10SM OVC007 00/00 A2975 RMK AO2 70015 T00030000 10003 20000
KBUU 251135Z AUTO 29005KT 7SM OVC005 00/00 A2975 RMK AO2 T00020000
KBUU 251115Z AUTO 29003KT 7SM OVC007 00/00 A2975 RMK AO2 T00020000
KBUU 251055Z AUTO 00000KT 7SM OVC007 00/00 A2975 RMK AO2 T00020000
KBUU 251035Z AUTO 00000KT 3SM BR OVC007 00/00 A2974 RMK AO2 T00010000
KBUU 251015Z AUTO 00000KT 3SM -SN OVC007 00/00 A2975 RMK AO2 T00010000
KBUU 250955Z AUTO 00000KT 4SM BR OVC007 00/00 A2975 RMK AO2 T00010000
KBUU 250935Z AUTO 00000KT 4SM UP BKN007 BKN011 OVC025 00/00 A2975 RMK AO2 T00010000
KBUU 250915Z AUTO 00000KT 4SM UP BKN005 BKN011 OVC025 00/00 A2975 RMK AO2 T00010000
KBUU 250855Z AUTO 00000KT 7SM OVC007 00/00 A2975 RMK AO2 T00010000
KBUU 250835Z AUTO 00000KT 7SM OVC007 00/00 A2976 RMK AO2 T00020000
KBUU 250815Z AUTO 00000KT 7SM BKN007 OVC010 00/00 A2976 RMK AO2 T00010000
KBUU 250755Z AUTO 00000KT 7SM UP OVC007 00/00 A2976 RMK AO2 T00010000
KBUU 250735Z AUTO 00000KT 7SM UP BKN007 OVC011 00/00 A2976 RMK AO2 T00010000
KBUU 250715Z AUTO 00000KT 10SM OVC009 00/00 A2975 RMK AO2 T00010000
KBUU 250655Z AUTO 00000KT 7SM UP OVC009 00/00 A2976 RMK AO2 T00010000
KBUU 250635Z AUTO 00000KT 5SM UP OVC007 00/00 A2975 RMK AO2 T00000000
KBUU 250615Z AUTO 00000KT 4SM UP BKN007 OVC015 00/00 A2976 RMK AO2 T00000000
KBUU 250555Z AUTO 00000KT 2SM UP OVC005 00/00 A2975 RMK AO2 P0001 60010 T00000000 10001 20000 400250000
KBUU 250535Z AUTO 00000KT 2SM UP OVC005 00/00 A2976 RMK AO2 P0001 T00000000
KBUU 250515Z AUTO 00000KT 1 3/4SM -SN VV007 00/00 A2976 RMK AO2 P0001 T00000000
KBUU 250455Z AUTO 00000KT 1 3/4SM -SN SCT004 00/00 A2977 RMK AO2 P0003 T00000000
KBUU 250435Z AUTO 00000KT 1 3/4SM -SN OVC004 00/00 A2976 RMK AO2 P0002 T00000000
KBUU 250415Z AUTO 00000KT 1 3/4SM -SN OVC004 00/00 A2977 RMK AO2 T00000000
KBUU 250355Z AUTO 00000KT 2SM -SN BKN002 OVC008 00/00 A2977 RMK AO2 P0002 T00000000
KBUU 250335Z AUTO 00000KT 2SM UP SCT002 OVC008 00/00 A2977 RMK AO2 P0001 T00000000
KBUU 250315Z AUTO 00000KT 1 3/4SM UP SCT006 SCT016 00/00 A2978 RMK AO2 P0001 T00000000
KBUU 250255Z AUTO 00000KT 1 1/4SM UP VV007 00/00 A2978 RMK AO2 P0002 60004 T00000000
KBUU 250235Z AUTO 00000KT 1 1/4SM UP VV007 00/00 A2979 RMK AO2 P0001 T00000000
KBUU 250215Z AUTO 00000KT 1 1/2SM -SN VV007 00/00 A2979 RMK AO2 T00000000
KBUU 250155Z AUTO 00000KT 1 1/2SM -SN BKN002 00/00 A2979 RMK AO2 P0001 T00000000
KBUU 250135Z AUTO 00000KT 2 1/2SM UP OVC002 00/00 A2979 RMK AO2 T00000000
KBUU 250115Z AUTO 00000KT 3SM UP BKN002 OVC009 00/00 A2980 RMK AO2 T00000000
KBUU 250055Z AUTO 00000KT 5SM UP SCT002 SCT009 BKN014 00/00 A2980 RMK AO2 P0001 T00010000
KBUU 250035Z AUTO 00000KT 4SM UP CLR 00/00 A2980 RMK AO2 P0001 T00000000
KBUU 250015Z AUTO 00000KT 2 1/2SM UP 00/00 A2980 RMK AO2 SKY OBSCURED P0001 T00000000
KBUU 242355Z AUTO 00000KT 2SM UP SCT001 OVC004 00/00 A2979 RMK AO2 P0003 60003 T00020001 10025 20002
KBUU 242335Z AUTO 00000KT 4SM UP BKN004 BKN011 BKN015 01/01 A2980 RMK AO2 P0002 T00050005
KBUU 242315Z AUTO 00000KT 5SM RA SCT004 01/01 A2980 RMK AO2 T00130013
KBUU 242255Z AUTO 00000KT 4SM DZ OVC004 02/02 A2979 RMK AO2 T00160016
KBUU 242235Z AUTO 00000KT 3/4SM -DZ OVC002 02/02 A2979 RMK AO2 T00170017
KBUU 242215Z AUTO 03006KT 1/4SM -DZ OVC002 02/02 A2978 RMK AO2 T00180018
KBUU 242155Z AUTO 00000KT 1/4SM FG OVC002 02/02 A2979 RMK AO2 T00170017
KBUU 242135Z AUTO 00000KT 1/4SM FG OVC002 02/02 A2980 RMK AO2 T00200020
KBUU 242115Z AUTO 00000KT 1/4SM FG OVC002 02/02 A2979 RMK AO2 T00210021